sensor_id;sensor_type;location;lat;lon;timestamp;P1;durP1;ratioP1;P2;durP2;ratioP2
42144;SDS011;27813;43.516;11.890;2022-12-07T00:00:51;54.75;;;13.60;;
42144;SDS011;27813;43.516;11.890;2022-12-07T00:04:56;37.78;;;12.63;;
42144;SDS011;27813;43.516;11.890;2022-12-07T00:09:00;70.15;;;21.48;;
42144;SDS011;27813;43.516;11.890;2022-12-07T00:13:05;45.00;;;14.02;;
42144;SDS011;27813;43.516;11.890;2022-12-07T00:17:09;57.17;;;13.52;;
42144;SDS011;27813;43.516;11.890;2022-12-07T00:21:20;40.65;;;10.85;;
42144;SDS011;27813;43.516;11.890;2022-12-07T00:25:26;31.23;;;9.65;;
42144;SDS011;27813;43.516;11.890;2022-12-07T00:29:30;30.42;;;8.90;;
42144;SDS011;27813;43.516;11.890;2022-12-07T05:32:34;78.00;;;13.95;;
42144;SDS011;27813;43.516;11.890;2022-12-07T05:36:40;56.08;;;14.20;;
42144;SDS011;27813;43.516;11.890;2022-12-07T05:40:44;58.58;;;15.00;;
42144;SDS011;27813;43.516;11.890;2022-12-07T05:44:48;53.10;;;10.65;;
42144;SDS011;27813;43.516;11.890;2022-12-07T05:48:52;40.50;;;11.10;;
42144;SDS011;27813;43.516;11.890;2022-12-07T05:52:57;41.10;;;10.60;;
42144;SDS011;27813;43.516;11.890;2022-12-07T05:57:01;42.95;;;9.60;;
42144;SDS011;27813;43.516;11.890;2022-12-07T06:01:06;49.70;;;10.30;;
42144;SDS011;27813;43.516;11.890;2022-12-07T06:05:10;30.20;;;10.25;;
42144;SDS011;27813;43.516;11.890;2022-12-07T06:09:14;44.60;;;11.63;;
42144;SDS011;27813;43.516;11.890;2022-12-07T06:13:19;37.60;;;9.45;;
42144;SDS011;27813;43.516;11.890;2022-12-07T06:17:24;195.18;;;45.80;;
42144;SDS011;27813;43.516;11.890;2022-12-07T06:21:28;41.53;;;12.20;;
42144;SDS011;27813;43.516;11.890;2022-12-07T06:25:32;52.30;;;15.10;;
42144;SDS011;27813;43.516;11.890;2022-12-07T06:29:36;63.08;;;15.57;;
42144;SDS011;27813;43.516;11.890;2022-12-07T06:33:43;54.35;;;13.23;;
42144;SDS011;27813;43.516;11.890;2022-12-07T06:37:53;54.03;;;14.30;;
42144;SDS011;27813;43.516;11.890;2022-12-07T06:41:57;50.00;;;15.68;;
42144;SDS011;27813;43.516;11.890;2022-12-07T06:46:01;66.90;;;17.50;;
42144;SDS011;27813;43.516;11.890;2022-12-07T06:50:08;34.58;;;10.98;;
42144;SDS011;27813;43.516;11.890;2022-12-07T06:54:14;30.73;;;8.85;;
42144;SDS011;27813;43.516;11.890;2022-12-07T06:58:21;44.55;;;15.45;;
42144;SDS011;27813;43.516;11.890;2022-12-07T07:02:25;59.40;;;15.88;;
42144;SDS011;27813;43.516;11.890;2022-12-07T07:06:29;100.40;;;31.90;;
42144;SDS011;27813;43.516;11.890;2022-12-07T07:10:33;75.30;;;23.52;;
42144;SDS011;27813;43.516;11.890;2022-12-07T07:18:42;84.55;;;28.38;;
42144;SDS011;27813;43.516;11.890;2022-12-07T07:26:50;56.90;;;19.13;;
42144;SDS011;27813;43.516;11.890;2022-12-07T07:30:54;69.78;;;18.75;;
42144;SDS011;27813;43.516;11.890;2022-12-07T07:34:58;62.53;;;15.88;;
42144;SDS011;27813;43.516;11.890;2022-12-07T07:43:07;72.00;;;19.80;;
42144;SDS011;27813;43.516;11.890;2022-12-07T07:47:12;80.05;;;18.58;;
42144;SDS011;27813;43.516;11.890;2022-12-07T07:51:17;66.25;;;18.98;;
42144;SDS011;27813;43.516;11.890;2022-12-07T07:55:21;72.68;;;24.83;;
42144;SDS011;27813;43.516;11.890;2022-12-07T07:59:25;42.50;;;14.55;;
42144;SDS011;27813;43.516;11.890;2022-12-07T08:03:29;59.35;;;18.42;;
42144;SDS011;27813;43.516;11.890;2022-12-07T08:07:33;49.88;;;15.85;;
42144;SDS011;27813;43.516;11.890;2022-12-07T08:11:38;63.00;;;16.50;;
42144;SDS011;27813;43.516;11.890;2022-12-07T08:15:44;46.00;;;14.50;;
42144;SDS011;27813;43.516;11.890;2022-12-07T08:19:50;51.28;;;15.23;;
42144;SDS011;27813;43.516;11.890;2022-12-07T08:23:54;81.30;;;23.00;;
42144;SDS011;27813;43.516;11.890;2022-12-07T08:28:00;75.18;;;20.13;;
42144;SDS011;27813;43.516;11.890;2022-12-07T08:36:13;84.50;;;19.92;;
42144;SDS011;27813;43.516;11.890;2022-12-07T08:40:19;62.47;;;17.60;;
42144;SDS011;27813;43.516;11.890;2022-12-07T08:44:25;84.63;;;23.83;;
42144;SDS011;27813;43.516;11.890;2022-12-07T08:52:34;92.35;;;24.73;;
42144;SDS011;27813;43.516;11.890;2022-12-07T08:56:39;196.43;;;36.10;;
42144;SDS011;27813;43.516;11.890;2022-12-07T09:00:43;235.88;;;50.20;;
42144;SDS011;27813;43.516;11.890;2022-12-07T09:04:47;253.82;;;77.03;;
42144;SDS011;27813;43.516;11.890;2022-12-07T09:08:53;463.92;;;134.13;;
42144;SDS011;27813;43.516;11.890;2022-12-07T09:13:01;232.45;;;50.35;;
42144;SDS011;27813;43.516;11.890;2022-12-07T09:30:36;125.53;;;34.90;;
42144;SDS011;27813;43.516;11.890;2022-12-07T09:35:00;85.35;;;29.15;;
42144;SDS011;27813;43.516;11.890;2022-12-07T09:39:06;93.10;;;30.17;;
42144;SDS011;27813;43.516;11.890;2022-12-07T09:47:25;106.93;;;31.73;;
42144;SDS011;27813;43.516;11.890;2022-12-07T09:51:30;87.60;;;30.17;;
42144;SDS011;27813;43.516;11.890;2022-12-07T09:55:35;76.70;;;28.17;;
42144;SDS011;27813;43.516;11.890;2022-12-07T09:59:41;98.55;;;30.10;;
42144;SDS011;27813;43.516;11.890;2022-12-07T10:03:53;62.08;;;27.58;;
42144;SDS011;27813;43.516;11.890;2022-12-07T10:08:02;85.60;;;32.65;;
42144;SDS011;27813;43.516;11.890;2022-12-07T10:12:08;87.50;;;32.67;;
42144;SDS011;27813;43.516;11.890;2022-12-07T10:20:28;61.38;;;28.73;;
42144;SDS011;27813;43.516;11.890;2022-12-07T10:24:33;73.03;;;28.08;;
42144;SDS011;27813;43.516;11.890;2022-12-07T10:28:37;67.03;;;28.67;;
42144;SDS011;27813;43.516;11.890;2022-12-07T10:32:44;67.63;;;29.77;;
42144;SDS011;27813;43.516;11.890;2022-12-07T10:36:48;67.70;;;30.02;;
42144;SDS011;27813;43.516;11.890;2022-12-07T10:41:04;65.07;;;29.80;;
42144;SDS011;27813;43.516;11.890;2022-12-07T10:45:16;70.70;;;32.33;;
42144;SDS011;27813;43.516;11.890;2022-12-07T10:49:36;96.13;;;40.97;;
42144;SDS011;27813;43.516;11.890;2022-12-07T10:54:12;89.82;;;38.42;;
42144;SDS011;27813;43.516;11.890;2022-12-07T11:03:29;103.53;;;38.08;;
42144;SDS011;27813;43.516;11.890;2022-12-07T11:12:58;56.85;;;28.67;;
42144;SDS011;27813;43.516;11.890;2022-12-07T11:17:15;56.08;;;29.75;;
42144;SDS011;27813;43.516;11.890;2022-12-07T11:21:45;63.67;;;29.00;;
42144;SDS011;27813;43.516;11.890;2022-12-07T11:30:10;46.53;;;23.75;;
42144;SDS011;27813;43.516;11.890;2022-12-07T11:38:43;62.22;;;27.52;;
42144;SDS011;27813;43.516;11.890;2022-12-07T11:43:01;51.42;;;28.10;;
42144;SDS011;27813;43.516;11.890;2022-12-07T11:51:51;41.28;;;24.23;;
42144;SDS011;27813;43.516;11.890;2022-12-07T12:00:06;40.08;;;20.40;;
42144;SDS011;27813;43.516;11.890;2022-12-07T12:04:22;40.75;;;21.38;;
42144;SDS011;27813;43.516;11.890;2022-12-07T12:13:58;30.23;;;17.20;;
42144;SDS011;27813;43.516;11.890;2022-12-07T12:22:39;29.58;;;16.90;;
42144;SDS011;27813;43.516;11.890;2022-12-07T12:26:51;26.58;;;14.05;;
42144;SDS011;27813;43.516;11.890;2022-12-07T12:35:35;49.00;;;26.20;;
42144;SDS011;27813;43.516;11.890;2022-12-07T12:39:50;46.83;;;28.00;;
42144;SDS011;27813;43.516;11.890;2022-12-07T12:48:40;19.63;;;13.15;;
42144;SDS011;27813;43.516;11.890;2022-12-07T12:52:47;25.73;;;16.30;;
42144;SDS011;27813;43.516;11.890;2022-12-07T13:01:55;24.30;;;13.13;;
42144;SDS011;27813;43.516;11.890;2022-12-07T13:05:37;18.52;;;11.52;;
42144;SDS011;27813;43.516;11.890;2022-12-07T13:09:42;19.35;;;10.07;;
42144;SDS011;27813;43.516;11.890;2022-12-07T13:13:48;18.70;;;10.63;;
42144;SDS011;27813;43.516;11.890;2022-12-07T13:17:56;19.85;;;10.93;;
42144;SDS011;27813;43.516;11.890;2022-12-07T13:22:27;31.95;;;18.40;;
42144;SDS011;27813;43.516;11.890;2022-12-07T13:26:37;21.08;;;10.02;;
42144;SDS011;27813;43.516;11.890;2022-12-07T13:31:32;24.63;;;15.70;;
42144;SDS011;27813;43.516;11.890;2022-12-07T13:35:29;26.02;;;14.57;;
42144;SDS011;27813;43.516;11.890;2022-12-07T13:39:47;18.33;;;12.07;;
42144;SDS011;27813;43.516;11.890;2022-12-07T13:48:33;33.33;;;16.45;;
42144;SDS011;27813;43.516;11.890;2022-12-07T13:52:47;21.70;;;12.20;;
42144;SDS011;27813;43.516;11.890;2022-12-07T13:56:52;16.27;;;10.10;;
42144;SDS011;27813;43.516;11.890;2022-12-07T14:00:58;26.38;;;13.23;;
42144;SDS011;27813;43.516;11.890;2022-12-07T14:09:17;68.13;;;29.08;;
42144;SDS011;27813;43.516;11.890;2022-12-07T14:13:37;28.23;;;14.75;;
42144;SDS011;27813;43.516;11.890;2022-12-07T14:17:51;33.42;;;15.50;;
42144;SDS011;27813;43.516;11.890;2022-12-07T14:22:16;18.95;;;11.23;;
42144;SDS011;27813;43.516;11.890;2022-12-07T14:26:38;19.48;;;8.82;;
42144;SDS011;27813;43.516;11.890;2022-12-07T14:30:43;23.25;;;12.52;;
42144;SDS011;27813;43.516;11.890;2022-12-07T14:35:22;25.23;;;11.88;;
42144;SDS011;27813;43.516;11.890;2022-12-07T14:39:19;13.27;;;8.93;;
42144;SDS011;27813;43.516;11.890;2022-12-07T14:43:27;26.52;;;12.55;;
42144;SDS011;27813;43.516;11.890;2022-12-07T14:47:33;24.15;;;13.13;;
42144;SDS011;27813;43.516;11.890;2022-12-07T14:51:57;16.00;;;8.07;;
42144;SDS011;27813;43.516;11.890;2022-12-07T14:56:25;12.65;;;8.32;;
42144;SDS011;27813;43.516;11.890;2022-12-07T15:00:33;16.08;;;8.68;;
42144;SDS011;27813;43.516;11.890;2022-12-07T15:04:38;11.18;;;7.45;;
42144;SDS011;27813;43.516;11.890;2022-12-07T15:08:44;13.88;;;7.18;;
42144;SDS011;27813;43.516;11.890;2022-12-07T15:12:49;17.98;;;7.57;;
42144;SDS011;27813;43.516;11.890;2022-12-07T15:16:54;22.38;;;10.60;;
42144;SDS011;27813;43.516;11.890;2022-12-07T15:21:18;11.68;;;7.22;;
42144;SDS011;27813;43.516;11.890;2022-12-07T15:25:23;11.57;;;7.25;;
42144;SDS011;27813;43.516;11.890;2022-12-07T15:33:33;17.60;;;8.88;;
42144;SDS011;27813;43.516;11.890;2022-12-07T15:37:40;14.32;;;8.95;;
42144;SDS011;27813;43.516;11.890;2022-12-07T15:45:51;15.10;;;7.85;;
42144;SDS011;27813;43.516;11.890;2022-12-07T15:50:00;16.08;;;7.88;;
42144;SDS011;27813;43.516;11.890;2022-12-07T15:54:08;16.38;;;9.40;;
42144;SDS011;27813;43.516;11.890;2022-12-07T15:58:27;23.67;;;12.32;;
42144;SDS011;27813;43.516;11.890;2022-12-07T16:02:38;18.50;;;10.95;;
42144;SDS011;27813;43.516;11.890;2022-12-07T16:06:45;28.20;;;11.95;;
42144;SDS011;27813;43.516;11.890;2022-12-07T16:10:49;23.20;;;14.35;;
42144;SDS011;27813;43.516;11.890;2022-12-07T16:14:54;14.43;;;10.45;;
42144;SDS011;27813;43.516;11.890;2022-12-07T16:18:58;19.15;;;10.50;;
42144;SDS011;27813;43.516;11.890;2022-12-07T16:23:02;15.18;;;10.52;;
42144;SDS011;27813;43.516;11.890;2022-12-07T16:27:06;14.70;;;9.45;;
42144;SDS011;27813;43.516;11.890;2022-12-07T16:31:12;14.95;;;8.80;;
42144;SDS011;27813;43.516;11.890;2022-12-07T16:35:18;17.45;;;9.43;;
42144;SDS011;27813;43.516;11.890;2022-12-07T16:39:23;15.43;;;10.07;;
42144;SDS011;27813;43.516;11.890;2022-12-07T16:43:30;20.10;;;11.60;;
42144;SDS011;27813;43.516;11.890;2022-12-07T16:47:39;14.80;;;9.25;;
42144;SDS011;27813;43.516;11.890;2022-12-07T16:51:44;21.05;;;11.82;;
42144;SDS011;27813;43.516;11.890;2022-12-07T16:55:49;19.27;;;11.05;;
42144;SDS011;27813;43.516;11.890;2022-12-07T16:59:54;24.40;;;14.85;;
42144;SDS011;27813;43.516;11.890;2022-12-07T17:04:01;21.67;;;14.00;;
42144;SDS011;27813;43.516;11.890;2022-12-07T17:08:08;21.95;;;13.05;;
42144;SDS011;27813;43.516;11.890;2022-12-07T17:12:13;21.58;;;13.23;;
42144;SDS011;27813;43.516;11.890;2022-12-07T17:16:17;28.98;;;15.50;;
42144;SDS011;27813;43.516;11.890;2022-12-07T17:20:21;25.88;;;16.25;;
42144;SDS011;27813;43.516;11.890;2022-12-07T17:24:27;23.58;;;15.65;;
42144;SDS011;27813;43.516;11.890;2022-12-07T17:28:31;23.50;;;14.70;;
42144;SDS011;27813;43.516;11.890;2022-12-07T17:32:36;25.20;;;16.25;;
42144;SDS011;27813;43.516;11.890;2022-12-07T17:36:41;21.15;;;13.05;;
42144;SDS011;27813;43.516;11.890;2022-12-07T17:40:45;80.32;;;52.28;;
42144;SDS011;27813;43.516;11.890;2022-12-07T17:44:49;38.75;;;23.95;;
42144;SDS011;27813;43.516;11.890;2022-12-07T17:48:54;41.00;;;23.75;;
42144;SDS011;27813;43.516;11.890;2022-12-07T17:52:59;15.75;;;11.32;;
42144;SDS011;27813;43.516;11.890;2022-12-07T17:57:15;28.02;;;18.80;;
42144;SDS011;27813;43.516;11.890;2022-12-07T18:01:19;38.05;;;23.13;;
42144;SDS011;27813;43.516;11.890;2022-12-07T18:05:26;40.95;;;23.13;;
42144;SDS011;27813;43.516;11.890;2022-12-07T18:09:30;25.35;;;14.77;;
42144;SDS011;27813;43.516;11.890;2022-12-07T18:13:34;32.35;;;16.80;;
42144;SDS011;27813;43.516;11.890;2022-12-07T18:17:38;12.55;;;8.75;;
42144;SDS011;27813;43.516;11.890;2022-12-07T18:21:45;12.65;;;6.10;;
42144;SDS011;27813;43.516;11.890;2022-12-07T18:25:50;10.65;;;6.85;;
42144;SDS011;27813;43.516;11.890;2022-12-07T18:29:55;11.88;;;7.20;;
42144;SDS011;27813;43.516;11.890;2022-12-07T18:34:02;18.85;;;11.13;;
42144;SDS011;27813;43.516;11.890;2022-12-07T18:38:16;13.75;;;9.85;;
42144;SDS011;27813;43.516;11.890;2022-12-07T18:42:21;14.32;;;9.20;;
42144;SDS011;27813;43.516;11.890;2022-12-07T18:46:26;14.15;;;7.43;;
42144;SDS011;27813;43.516;11.890;2022-12-07T18:50:30;9.65;;;5.45;;
42144;SDS011;27813;43.516;11.890;2022-12-07T18:54:36;9.65;;;6.82;;
42144;SDS011;27813;43.516;11.890;2022-12-07T18:58:42;13.20;;;7.80;;
42144;SDS011;27813;43.516;11.890;2022-12-07T19:03:09;16.98;;;9.95;;
42144;SDS011;27813;43.516;11.890;2022-12-07T19:07:14;12.27;;;7.85;;
42144;SDS011;27813;43.516;11.890;2022-12-07T19:11:29;11.18;;;7.63;;
42144;SDS011;27813;43.516;11.890;2022-12-07T19:15:54;26.55;;;14.55;;
42144;SDS011;27813;43.516;11.890;2022-12-07T19:20:01;11.20;;;8.07;;
42144;SDS011;27813;43.516;11.890;2022-12-07T19:24:06;11.68;;;5.50;;
42144;SDS011;27813;43.516;11.890;2022-12-07T19:28:11;11.85;;;5.45;;
42144;SDS011;27813;43.516;11.890;2022-12-07T19:32:15;7.05;;;4.80;;
42144;SDS011;27813;43.516;11.890;2022-12-07T19:36:21;9.57;;;5.63;;
42144;SDS011;27813;43.516;11.890;2022-12-07T19:40:27;9.85;;;6.35;;
42144;SDS011;27813;43.516;11.890;2022-12-07T19:44:31;12.13;;;7.43;;
42144;SDS011;27813;43.516;11.890;2022-12-07T19:48:37;14.10;;;6.38;;
42144;SDS011;27813;43.516;11.890;2022-12-07T19:56:46;11.02;;;6.57;;
42144;SDS011;27813;43.516;11.890;2022-12-07T20:00:51;17.58;;;7.80;;
42144;SDS011;27813;43.516;11.890;2022-12-07T20:05:00;11.75;;;7.35;;
42144;SDS011;27813;43.516;11.890;2022-12-07T20:09:10;15.25;;;8.43;;
42144;SDS011;27813;43.516;11.890;2022-12-07T20:13:16;14.60;;;7.68;;
42144;SDS011;27813;43.516;11.890;2022-12-07T20:17:34;19.98;;;7.43;;
42144;SDS011;27813;43.516;11.890;2022-12-07T20:21:41;12.55;;;7.57;;
42144;SDS011;27813;43.516;11.890;2022-12-07T20:25:50;12.52;;;7.22;;
42144;SDS011;27813;43.516;11.890;2022-12-07T20:30:03;18.25;;;7.55;;
42144;SDS011;27813;43.516;11.890;2022-12-07T20:34:12;13.52;;;6.65;;
42144;SDS011;27813;43.516;11.890;2022-12-07T20:38:21;12.43;;;7.63;;
42144;SDS011;27813;43.516;11.890;2022-12-07T20:42:30;19.13;;;9.48;;
42144;SDS011;27813;43.516;11.890;2022-12-07T20:46:46;23.90;;;12.75;;
42144;SDS011;27813;43.516;11.890;2022-12-07T20:51:03;27.08;;;16.20;;
42144;SDS011;27813;43.516;11.890;2022-12-07T20:55:11;13.57;;;8.40;;
42144;SDS011;27813;43.516;11.890;2022-12-07T21:03:47;18.52;;;8.43;;
42144;SDS011;27813;43.516;11.890;2022-12-07T21:08:12;18.38;;;9.55;;
42144;SDS011;27813;43.516;11.890;2022-12-07T21:12:21;20.35;;;8.98;;
42144;SDS011;27813;43.516;11.890;2022-12-07T21:16:30;16.02;;;9.15;;
42144;SDS011;27813;43.516;11.890;2022-12-07T21:20:44;16.25;;;9.38;;
42144;SDS011;27813;43.516;11.890;2022-12-07T21:24:51;13.18;;;7.90;;
42144;SDS011;27813;43.516;11.890;2022-12-07T21:29:05;13.43;;;8.02;;
42144;SDS011;27813;43.516;11.890;2022-12-07T21:33:15;16.20;;;8.43;;
42144;SDS011;27813;43.516;11.890;2022-12-07T21:37:39;17.38;;;8.20;;
42144;SDS011;27813;43.516;11.890;2022-12-07T21:41:55;17.38;;;7.90;;
42144;SDS011;27813;43.516;11.890;2022-12-07T21:46:02;19.67;;;9.95;;
42144;SDS011;27813;43.516;11.890;2022-12-07T21:50:15;22.60;;;9.75;;
42144;SDS011;27813;43.516;11.890;2022-12-07T21:54:40;22.85;;;10.43;;
42144;SDS011;27813;43.516;11.890;2022-12-07T21:59:03;24.55;;;11.77;;
42144;SDS011;27813;43.516;11.890;2022-12-07T22:03:20;12.98;;;8.27;;
42144;SDS011;27813;43.516;11.890;2022-12-07T22:07:27;18.92;;;9.32;;
42144;SDS011;27813;43.516;11.890;2022-12-07T22:11:39;24.58;;;11.80;;
42144;SDS011;27813;43.516;11.890;2022-12-07T22:15:46;19.20;;;9.40;;
42144;SDS011;27813;43.516;11.890;2022-12-07T22:19:51;18.52;;;11.32;;
42144;SDS011;27813;43.516;11.890;2022-12-07T22:27:59;21.00;;;9.40;;
42144;SDS011;27813;43.516;11.890;2022-12-07T22:36:29;17.45;;;7.72;;
42144;SDS011;27813;43.516;11.890;2022-12-07T22:40:36;17.88;;;7.15;;
42144;SDS011;27813;43.516;11.890;2022-12-07T22:44:40;21.98;;;10.98;;
42144;SDS011;27813;43.516;11.890;2022-12-07T22:48:46;13.75;;;7.43;;
42144;SDS011;27813;43.516;11.890;2022-12-07T22:56:57;16.13;;;8.93;;
42144;SDS011;27813;43.516;11.890;2022-12-07T23:01:05;13.20;;;6.93;;
42144;SDS011;27813;43.516;11.890;2022-12-07T23:05:10;12.75;;;6.97;;
42144;SDS011;27813;43.516;11.890;2022-12-07T23:09:19;10.02;;;5.53;;
42144;SDS011;27813;43.516;11.890;2022-12-07T23:13:23;29.67;;;14.63;;
42144;SDS011;27813;43.516;11.890;2022-12-07T23:17:41;14.07;;;7.30;;
42144;SDS011;27813;43.516;11.890;2022-12-07T23:21:45;24.65;;;12.80;;
42144;SDS011;27813;43.516;11.890;2022-12-07T23:25:49;21.67;;;10.77;;
42144;SDS011;27813;43.516;11.890;2022-12-07T23:29:53;19.15;;;9.15;;
42144;SDS011;27813;43.516;11.890;2022-12-07T23:33:57;18.20;;;9.00;;
42144;SDS011;27813;43.516;11.890;2022-12-07T23:38:02;18.73;;;9.40;;
42144;SDS011;27813;43.516;11.890;2022-12-07T23:42:06;14.52;;;8.57;;
42144;SDS011;27813;43.516;11.890;2022-12-07T23:46:12;19.17;;;9.13;;
42144;SDS011;27813;43.516;11.890;2022-12-07T23:50:20;20.70;;;8.90;;
42144;SDS011;27813;43.516;11.890;2022-12-07T23:54:27;20.65;;;8.82;;
42144;SDS011;27813;43.516;11.890;2022-12-07T23:58:31;16.52;;;7.93;;
